SWR4WP LSZH-EDDL
Flight info
| Callsign | SWR4WP |
|---|---|
| Flight time | 0h 56m |
| Altitude | 30000 |
| Route | VEBIT T10 TORPA DCT EDOPI DCT GIVOR DCT SORAL DCT IBERA DCT DIK/N0471F310 N853 ARCKY T853 NVO T857 BIKMU BIKMU1A |
| Aircraft | B77W/H-SDE1E2E3FGHIJ2J3J4J5M1RWXY/LB1D1 |
Departure
| Time | 2026-05-05 11:00 |
|---|---|
| Airport | Zürich Airport (LSZH) |
Arrival
| Time | 2026-05-05 11:57 |
|---|---|
| Airport | Düsseldorf Airport (EDDL) |
| Time | Latitude | Longitude | Altitude | Speed | Heading |
|---|---|---|---|---|---|
| 2026-05-05 10:46 | 47.46053 | 8.55432 | 1392 ft | 0 kts | 6° |
| 2026-05-05 10:52 | 47.46040 | 8.55430 | 1392 ft | 2 kts | 6° |
| 2026-05-05 10:52 | 47.46025 | 8.55427 | 1393 ft | 2 kts | 7° |
| 2026-05-05 10:52 | 47.46010 | 8.55422 | 1393 ft | 2 kts | 26° |
| 2026-05-05 10:53 | 47.45998 | 8.55411 | 1393 ft | 2 kts | 43° |
| 2026-05-05 10:53 | 47.45988 | 8.55394 | 1393 ft | 2 kts | 58° |
| 2026-05-05 10:53 | 47.45981 | 8.55374 | 1394 ft | 2 kts | 74° |
| 2026-05-05 10:53 | 47.45978 | 8.55353 | 1394 ft | 2 kts | 89° |
| 2026-05-05 10:54 | 47.45978 | 8.55341 | 1393 ft | 1 kts | 97° |
| 2026-05-05 10:54 | 47.45979 | 8.55338 | 1393 ft | 0 kts | 97° |
| 2026-05-05 10:56 | 47.45978 | 8.55344 | 1393 ft | 2 kts | 97° |
| 2026-05-05 10:56 | 47.45972 | 8.55427 | 1394 ft | 14 kts | 97° |
| 2026-05-05 10:56 | 47.45958 | 8.55592 | 1396 ft | 15 kts | 97° |
| 2026-05-05 10:56 | 47.45947 | 8.55737 | 1399 ft | 14 kts | 96° |
| 2026-05-05 10:57 | 47.45937 | 8.55896 | 1402 ft | 16 kts | 95° |
| 2026-05-05 10:57 | 47.45925 | 8.56073 | 1405 ft | 18 kts | 96° |
| 2026-05-05 10:57 | 47.45910 | 8.56258 | 1408 ft | 16 kts | 96° |
| 2026-05-05 10:57 | 47.45900 | 8.56411 | 1410 ft | 12 kts | 113° |
| 2026-05-05 10:58 | 47.45839 | 8.56493 | 1413 ft | 10 kts | 141° |
| 2026-05-05 10:58 | 47.45801 | 8.56572 | 1414 ft | 9 kts | 96° |
| 2026-05-05 10:58 | 47.45795 | 8.56656 | 1415 ft | 7 kts | 97° |
| 2026-05-05 10:58 | 47.45786 | 8.56756 | 1416 ft | 12 kts | 96° |
| 2026-05-05 10:59 | 47.45776 | 8.56907 | 1419 ft | 15 kts | 96° |
| 2026-05-05 10:59 | 47.45735 | 8.57019 | 1421 ft | 11 kts | 164° |
| 2026-05-05 10:59 | 47.45671 | 8.57012 | 1423 ft | 4 kts | 222° |
| 2026-05-05 10:59 | 47.45668 | 8.56963 | 1422 ft | 11 kts | 275° |
| 2026-05-05 11:00 | 47.45696 | 8.56547 | 1416 ft | 78 kts | 277° |
| 2026-05-05 11:00 | 47.45776 | 8.55405 | 1395 ft | 146 kts | 277° |
| 2026-05-05 11:00 | 47.45890 | 8.53760 | 1811 ft | 165 kts | 276° |
| 2026-05-05 11:00 | 47.46012 | 8.52056 | 2528 ft | 172 kts | 276° |
| 2026-05-05 11:01 | 47.46141 | 8.50280 | 2986 ft | 183 kts | 276° |
| 2026-05-05 11:01 | 47.46242 | 8.48329 | 3354 ft | 200 kts | 268° |
| 2026-05-05 11:01 | 47.45789 | 8.46320 | 3709 ft | 218 kts | 229° |
| 2026-05-05 11:01 | 47.44481 | 8.45064 | 4077 ft | 237 kts | 203° |
| 2026-05-05 11:02 | 47.43049 | 8.43783 | 4489 ft | 255 kts | 229° |
| 2026-05-05 11:02 | 47.42055 | 8.41525 | 5096 ft | 266 kts | 239° |
| 2026-05-05 11:02 | 47.41094 | 8.39197 | 5873 ft | 269 kts | 237° |
| 2026-05-05 11:02 | 47.40054 | 8.36908 | 6592 ft | 275 kts | 235° |
| 2026-05-05 11:03 | 47.38987 | 8.34573 | 7396 ft | 276 kts | 238° |
| 2026-05-05 11:03 | 47.38075 | 8.32127 | 8215 ft | 277 kts | 241° |
| 2026-05-05 11:03 | 47.37186 | 8.29609 | 8970 ft | 278 kts | 242° |
| 2026-05-05 11:03 | 47.36295 | 8.27089 | 9748 ft | 279 kts | 242° |
| 2026-05-05 11:04 | 47.35388 | 8.24540 | 10358 ft | 287 kts | 241° |
| 2026-05-05 11:04 | 47.34449 | 8.21900 | 10740 ft | 304 kts | 241° |
| 2026-05-05 11:04 | 47.33435 | 8.19048 | 11099 ft | 322 kts | 241° |
| 2026-05-05 11:04 | 47.32369 | 8.16056 | 11583 ft | 336 kts | 241° |
| 2026-05-05 11:05 | 47.31294 | 8.13039 | 12379 ft | 340 kts | 241° |
| 2026-05-05 11:05 | 47.30207 | 8.09979 | 13319 ft | 342 kts | 241° |
| 2026-05-05 11:05 | 47.29102 | 8.06871 | 14205 ft | 347 kts | 240° |
| 2026-05-05 11:05 | 47.28031 | 8.03671 | 15039 ft | 355 kts | 247° |
| 2026-05-05 11:06 | 47.27372 | 8.00150 | 15939 ft | 363 kts | 259° |
| 2026-05-05 11:06 | 47.27254 | 7.96405 | 16819 ft | 372 kts | 272° |
| 2026-05-05 11:06 | 47.27562 | 7.92633 | 17703 ft | 378 kts | 276° |
| 2026-05-05 11:06 | 47.27933 | 7.88827 | 18577 ft | 383 kts | 276° |
| 2026-05-05 11:07 | 47.28312 | 7.84954 | 19473 ft | 387 kts | 276° |
| 2026-05-05 11:07 | 47.28695 | 7.81036 | 20325 ft | 391 kts | 275° |
| 2026-05-05 11:07 | 47.29081 | 7.77059 | 21118 ft | 397 kts | 275° |
| 2026-05-05 11:07 | 47.29470 | 7.73048 | 21908 ft | 402 kts | 275° |
| 2026-05-05 11:08 | 47.29864 | 7.68963 | 22656 ft | 407 kts | 275° |
| 2026-05-05 11:08 | 47.30265 | 7.64827 | 23404 ft | 412 kts | 276° |
| 2026-05-05 11:08 | 47.30927 | 7.60715 | 24230 ft | 417 kts | 284° |
| 2026-05-05 11:08 | 47.31794 | 7.56684 | 24992 ft | 420 kts | 285° |
| 2026-05-05 11:09 | 47.32697 | 7.52552 | 25641 ft | 426 kts | 284° |
| 2026-05-05 11:09 | 47.33608 | 7.48376 | 26282 ft | 431 kts | 284° |
| 2026-05-05 11:09 | 47.34515 | 7.44202 | 26920 ft | 436 kts | 284° |
| 2026-05-05 11:09 | 47.35437 | 7.39949 | 27547 ft | 441 kts | 284° |
| 2026-05-05 11:10 | 47.36371 | 7.35627 | 28205 ft | 445 kts | 284° |
| 2026-05-05 11:10 | 47.37307 | 7.31293 | 28835 ft | 449 kts | 283° |
| 2026-05-05 11:10 | 47.38251 | 7.26905 | 29482 ft | 453 kts | 283° |
| 2026-05-05 11:10 | 47.39202 | 7.22476 | 29870 ft | 457 kts | 283° |
| 2026-05-05 11:11 | 47.40164 | 7.17984 | 29883 ft | 457 kts | 283° |
| 2026-05-05 11:11 | 47.41694 | 7.08888 | 29891 ft | 451 kts | 278° |
| 2026-05-05 11:12 | 47.43043 | 6.99674 | 29885 ft | 451 kts | 278° |
| 2026-05-05 11:12 | 47.44372 | 6.90561 | 29903 ft | 452 kts | 278° |
| 2026-05-05 11:13 | 47.45803 | 6.81605 | 29906 ft | 454 kts | 285° |
| 2026-05-05 11:13 | 47.48847 | 6.73258 | 29892 ft | 463 kts | 306° |
| 2026-05-05 11:14 | 47.53583 | 6.66794 | 29904 ft | 467 kts | 326° |
| 2026-05-05 11:14 | 47.59541 | 6.62931 | 29886 ft | 472 kts | 346° |
| 2026-05-05 11:15 | 47.66061 | 6.61652 | 29894 ft | 474 kts | 355° |
| 2026-05-05 11:15 | 47.72583 | 6.60614 | 29895 ft | 473 kts | 354° |
| 2026-05-05 11:16 | 47.79156 | 6.59433 | 29901 ft | 473 kts | 353° |
| 2026-05-05 11:16 | 47.85659 | 6.58193 | 29892 ft | 473 kts | 353° |
| 2026-05-05 11:17 | 47.92191 | 6.56908 | 29888 ft | 472 kts | 353° |
| 2026-05-05 11:17 | 47.98679 | 6.55429 | 29881 ft | 473 kts | 351° |
| 2026-05-05 11:18 | 48.05158 | 6.53870 | 29879 ft | 473 kts | 351° |
| 2026-05-05 11:18 | 48.11621 | 6.52315 | 29868 ft | 472 kts | 351° |
| 2026-05-05 11:19 | 48.18109 | 6.50751 | 29867 ft | 472 kts | 351° |
| 2026-05-05 11:19 | 48.24588 | 6.49188 | 29866 ft | 470 kts | 351° |
| 2026-05-05 11:20 | 48.31045 | 6.47626 | 29870 ft | 470 kts | 351° |
| 2026-05-05 11:20 | 48.37482 | 6.46065 | 29871 ft | 472 kts | 351° |
| 2026-05-05 11:21 | 48.43955 | 6.44492 | 29864 ft | 471 kts | 351° |
| 2026-05-05 11:21 | 48.50389 | 6.42924 | 29871 ft | 471 kts | 351° |
| 2026-05-05 11:22 | 48.56859 | 6.41343 | 29858 ft | 469 kts | 351° |
| 2026-05-05 11:22 | 48.63349 | 6.39753 | 29886 ft | 470 kts | 352° |
| 2026-05-05 11:23 | 48.69819 | 6.39519 | 29869 ft | 469 kts | 5° |
| 2026-05-05 11:23 | 48.76338 | 6.40181 | 29877 ft | 468 kts | 5° |
| 2026-05-05 11:24 | 48.82822 | 6.40846 | 29880 ft | 470 kts | 5° |
| 2026-05-05 11:24 | 48.89338 | 6.41511 | 29875 ft | 468 kts | 5° |
| 2026-05-05 11:25 | 48.95808 | 6.42171 | 29880 ft | 470 kts | 5° |
| 2026-05-05 11:25 | 49.02320 | 6.42837 | 29874 ft | 468 kts | 5° |
| 2026-05-05 11:26 | 49.08848 | 6.43472 | 29874 ft | 468 kts | 2° |
| 2026-05-05 11:26 | 49.15270 | 6.42174 | 29876 ft | 469 kts | 345° |
| 2026-05-05 11:27 | 49.21590 | 6.39594 | 29865 ft | 469 kts | 345° |
| 2026-05-05 11:27 | 49.27882 | 6.37001 | 29863 ft | 468 kts | 345° |
| 2026-05-05 11:28 | 49.34134 | 6.34420 | 29853 ft | 466 kts | 343° |
| 2026-05-05 11:28 | 49.40385 | 6.31834 | 29857 ft | 467 kts | 343° |
| 2026-05-05 11:29 | 49.46677 | 6.29225 | 29858 ft | 466 kts | 343° |
| 2026-05-05 11:29 | 49.52948 | 6.26626 | 29857 ft | 465 kts | 344° |
| 2026-05-05 11:30 | 49.59199 | 6.24069 | 29856 ft | 464 kts | 344° |
| 2026-05-05 11:30 | 49.65429 | 6.21515 | 29857 ft | 465 kts | 344° |
| 2026-05-05 11:31 | 49.71708 | 6.18933 | 29858 ft | 464 kts | 344° |
| 2026-05-05 11:31 | 49.77931 | 6.16366 | 29861 ft | 463 kts | 344° |
| 2026-05-05 11:32 | 49.84158 | 6.13808 | 29851 ft | 463 kts | 347° |
| 2026-05-05 11:32 | 49.90573 | 6.12980 | 29855 ft | 463 kts | 0° |
| 2026-05-05 11:33 | 49.97015 | 6.13019 | 29859 ft | 463 kts | 0° |
| 2026-05-05 11:33 | 50.03473 | 6.13063 | 29859 ft | 465 kts | 0° |
| 2026-05-05 11:34 | 50.09930 | 6.13103 | 29862 ft | 466 kts | 0° |
| 2026-05-05 11:34 | 50.16380 | 6.13141 | 29853 ft | 465 kts | 360° |
| 2026-05-05 11:35 | 50.22823 | 6.13179 | 29848 ft | 460 kts | 360° |
| 2026-05-05 11:35 | 50.25971 | 6.13337 | 29539 ft | 451 kts | 6° |
| 2026-05-05 11:35 | 50.29026 | 6.14199 | 28915 ft | 449 kts | 16° |
| 2026-05-05 11:35 | 50.31964 | 6.15864 | 28345 ft | 445 kts | 26° |
| 2026-05-05 11:36 | 50.34623 | 6.18180 | 27832 ft | 439 kts | 33° |
| 2026-05-05 11:36 | 50.37197 | 6.20764 | 27320 ft | 435 kts | 34° |
| 2026-05-05 11:36 | 50.39700 | 6.23313 | 26797 ft | 431 kts | 34° |
| 2026-05-05 11:36 | 50.42174 | 6.25841 | 26279 ft | 427 kts | 34° |
| 2026-05-05 11:37 | 50.44639 | 6.28370 | 25763 ft | 423 kts | 34° |
| 2026-05-05 11:37 | 50.47096 | 6.30897 | 25237 ft | 419 kts | 34° |
| 2026-05-05 11:37 | 50.49523 | 6.33398 | 24731 ft | 415 kts | 34° |
| 2026-05-05 11:37 | 50.51967 | 6.35744 | 24212 ft | 412 kts | 31° |
| 2026-05-05 11:38 | 50.54418 | 6.37964 | 23683 ft | 409 kts | 31° |
| 2026-05-05 11:38 | 50.56862 | 6.40184 | 23182 ft | 406 kts | 31° |
| 2026-05-05 11:38 | 50.59279 | 6.42390 | 22672 ft | 403 kts | 31° |
| 2026-05-05 11:38 | 50.61691 | 6.44600 | 22162 ft | 401 kts | 31° |
| 2026-05-05 11:39 | 50.64096 | 6.46810 | 21632 ft | 398 kts | 31° |
| 2026-05-05 11:39 | 50.66480 | 6.49006 | 21100 ft | 396 kts | 31° |
| 2026-05-05 11:39 | 50.68813 | 6.51161 | 20584 ft | 394 kts | 31° |
| 2026-05-05 11:39 | 50.71171 | 6.53342 | 20051 ft | 391 kts | 31° |
| 2026-05-05 11:40 | 50.73514 | 6.55513 | 19535 ft | 389 kts | 31° |
| 2026-05-05 11:40 | 50.75818 | 6.57652 | 19021 ft | 386 kts | 31° |
| 2026-05-05 11:40 | 50.78116 | 6.59787 | 18497 ft | 384 kts | 31° |
| 2026-05-05 11:40 | 50.80403 | 6.61893 | 17971 ft | 382 kts | 28° |
| 2026-05-05 11:41 | 50.82860 | 6.63491 | 17456 ft | 380 kts | 16° |
| 2026-05-05 11:41 | 50.85435 | 6.64318 | 16940 ft | 378 kts | 8° |
| 2026-05-05 11:41 | 50.88026 | 6.64885 | 16420 ft | 376 kts | 7° |
| 2026-05-05 11:41 | 50.90588 | 6.65433 | 15912 ft | 375 kts | 8° |
| 2026-05-05 11:42 | 50.93182 | 6.65987 | 15376 ft | 373 kts | 8° |
| 2026-05-05 11:42 | 50.95739 | 6.66534 | 14847 ft | 371 kts | 8° |
| 2026-05-05 11:42 | 50.98260 | 6.67074 | 14356 ft | 368 kts | 8° |
| 2026-05-05 11:42 | 51.00794 | 6.67618 | 13898 ft | 365 kts | 8° |
| 2026-05-05 11:43 | 51.03311 | 6.67840 | 13402 ft | 362 kts | 359° |
| 2026-05-05 11:43 | 51.05810 | 6.67671 | 12901 ft | 360 kts | 357° |
| 2026-05-05 11:43 | 51.08316 | 6.67472 | 12373 ft | 359 kts | 360° |
| 2026-05-05 11:43 | 51.10777 | 6.67904 | 11833 ft | 356 kts | 15° |
| 2026-05-05 11:44 | 51.13044 | 6.69278 | 11587 ft | 345 kts | 26° |
| 2026-05-05 11:44 | 51.15181 | 6.70888 | 11459 ft | 333 kts | 27° |
| 2026-05-05 11:44 | 51.17227 | 6.72469 | 11405 ft | 319 kts | 27° |
| 2026-05-05 11:44 | 51.19157 | 6.73973 | 11348 ft | 306 kts | 27° |
| 2026-05-05 11:45 | 51.21054 | 6.75455 | 11125 ft | 299 kts | 27° |
| 2026-05-05 11:45 | 51.22922 | 6.76919 | 10794 ft | 297 kts | 27° |
| 2026-05-05 11:45 | 51.24764 | 6.78364 | 10413 ft | 297 kts | 27° |
| 2026-05-05 11:45 | 51.26600 | 6.79806 | 10038 ft | 296 kts | 27° |
| 2026-05-05 11:46 | 51.28435 | 6.81248 | 9699 ft | 294 kts | 27° |
| 2026-05-05 11:46 | 51.30278 | 6.82697 | 9382 ft | 292 kts | 27° |
| 2026-05-05 11:46 | 51.32082 | 6.84116 | 9046 ft | 290 kts | 27° |
| 2026-05-05 11:46 | 51.33871 | 6.85526 | 8700 ft | 289 kts | 27° |
| 2026-05-05 11:47 | 51.35680 | 6.86953 | 8373 ft | 287 kts | 27° |
| 2026-05-05 11:47 | 51.37446 | 6.88346 | 8043 ft | 285 kts | 27° |
| 2026-05-05 11:47 | 51.39207 | 6.89737 | 7734 ft | 282 kts | 27° |
| 2026-05-05 11:47 | 51.40963 | 6.91125 | 7433 ft | 280 kts | 27° |
| 2026-05-05 11:48 | 51.44425 | 6.93865 | 6711 ft | 276 kts | 27° |
| 2026-05-05 11:48 | 51.46146 | 6.95230 | 6297 ft | 274 kts | 27° |
| 2026-05-05 11:48 | 51.47839 | 6.96575 | 5891 ft | 272 kts | 28° |
| 2026-05-05 11:49 | 51.49313 | 6.98387 | 5409 ft | 271 kts | 51° |
| 2026-05-05 11:49 | 51.50350 | 7.00925 | 4891 ft | 272 kts | 56° |
| 2026-05-05 11:49 | 51.51400 | 7.03449 | 4361 ft | 273 kts | 64° |
| 2026-05-05 11:49 | 51.51923 | 7.06328 | 3851 ft | 273 kts | 75° |
| 2026-05-05 11:50 | 51.52523 | 7.09202 | 3346 ft | 273 kts | 73° |
| 2026-05-05 11:50 | 51.52602 | 7.12198 | 3006 ft | 268 kts | 102° |
| 2026-05-05 11:50 | 51.51793 | 7.14758 | 2976 ft | 256 kts | 130° |
| 2026-05-05 11:50 | 51.50362 | 7.16296 | 2963 ft | 244 kts | 162° |
| 2026-05-05 11:51 | 51.48725 | 7.16475 | 2980 ft | 236 kts | 188° |
| 2026-05-05 11:51 | 51.47122 | 7.15459 | 2977 ft | 264 kts | 217° |
| 2026-05-05 11:51 | 51.45867 | 7.13284 | 2989 ft | 267 kts | 234° |
| 2026-05-05 11:51 | 51.44784 | 7.10893 | 2985 ft | 266 kts | 235° |
| 2026-05-05 11:52 | 51.43699 | 7.08486 | 2977 ft | 266 kts | 234° |
| 2026-05-05 11:52 | 51.42599 | 7.06071 | 2983 ft | 266 kts | 234° |
| 2026-05-05 11:52 | 51.41513 | 7.03709 | 2985 ft | 266 kts | 234° |
| 2026-05-05 11:52 | 51.40410 | 7.01333 | 2972 ft | 263 kts | 234° |
| 2026-05-05 11:53 | 51.39340 | 6.99053 | 2965 ft | 249 kts | 234° |
| 2026-05-05 11:53 | 51.38317 | 6.96912 | 2979 ft | 232 kts | 233° |
| 2026-05-05 11:53 | 51.37376 | 6.94968 | 2810 ft | 213 kts | 233° |
| 2026-05-05 11:53 | 51.36502 | 6.93153 | 2542 ft | 197 kts | 234° |
| 2026-05-05 11:54 | 51.35701 | 6.91470 | 2297 ft | 184 kts | 234° |
| 2026-05-05 11:54 | 51.34976 | 6.89940 | 2028 ft | 164 kts | 235° |
| 2026-05-05 11:54 | 51.34310 | 6.88532 | 1853 ft | 157 kts | 235° |
| 2026-05-05 11:54 | 51.33649 | 6.87138 | 1605 ft | 156 kts | 236° |
| 2026-05-05 11:55 | 51.32991 | 6.85756 | 1387 ft | 155 kts | 235° |
| 2026-05-05 11:55 | 51.32346 | 6.84400 | 1169 ft | 155 kts | 236° |
| 2026-05-05 11:55 | 51.31695 | 6.83030 | 938 ft | 153 kts | 236° |
| 2026-05-05 11:55 | 51.31056 | 6.81688 | 728 ft | 152 kts | 236° |
| 2026-05-05 11:56 | 51.30422 | 6.80365 | 515 ft | 150 kts | 235° |
| 2026-05-05 11:56 | 51.29785 | 6.79037 | 305 ft | 148 kts | 236° |
| 2026-05-05 11:56 | 51.29176 | 6.77747 | 131 ft | 141 kts | 235° |
| 2026-05-05 11:56 | 51.28711 | 6.76773 | 131 ft | 77 kts | 234° |
| 2026-05-05 11:57 | 51.28511 | 6.76352 | 130 ft | 29 kts | 234° |
| 2026-05-05 11:57 | 51.28398 | 6.76121 | 127 ft | 22 kts | 231° |
| 2026-05-05 11:57 | 51.28289 | 6.76015 | 126 ft | 15 kts | 202° |
| 2026-05-05 11:57 | 51.28193 | 6.75947 | 124 ft | 15 kts | 204° |
| 2026-05-05 11:58 | 51.28092 | 6.75872 | 123 ft | 15 kts | 206° |
| 2026-05-05 11:58 | 51.28010 | 6.75773 | 125 ft | 14 kts | 232° |
| 2026-05-05 11:58 | 51.27956 | 6.75659 | 127 ft | 11 kts | 233° |
| 2026-05-05 11:58 | 51.27911 | 6.75561 | 128 ft | 10 kts | 232° |
| 2026-05-05 11:59 | 51.27868 | 6.75473 | 129 ft | 9 kts | 232° |
| 2026-05-05 11:59 | 51.27827 | 6.75397 | 130 ft | 8 kts | 211° |
| 2026-05-05 11:59 | 51.27776 | 6.75404 | 131 ft | 7 kts | 158° |
| 2026-05-05 11:59 | 51.27722 | 6.75446 | 132 ft | 9 kts | 154° |
| 2026-05-05 12:00 | 51.27697 | 6.75472 | 133 ft | 1 kts | 117° |
| 2026-05-05 12:00 | 51.27701 | 6.75494 | 133 ft | 4 kts | 61° |
| 2026-05-05 12:00 | 51.27723 | 6.75560 | 131 ft | 6 kts | 61° |
| 2026-05-05 12:00 | 51.27728 | 6.75574 | 131 ft | 0 kts | 63° |